sensor_id;sensor_type;location;lat;lon;timestamp;pressure;altitude;pressure_sealevel;temperature;humidity
50867;BME280;36839;51.946;21.002;2023-04-22T00:00:14;100101.77;;;4.69;100.00
50867;BME280;36839;51.946;21.002;2023-04-22T00:03:03;100098.12;;;4.64;100.00
50867;BME280;36839;51.946;21.002;2023-04-22T00:05:30;100099.09;;;4.61;100.00
50867;BME280;36839;51.946;21.002;2023-04-22T00:07:57;100101.83;;;4.56;100.00
50867;BME280;36839;51.946;21.002;2023-04-22T00:10:24;100105.67;;;4.53;100.00
50867;BME280;36839;51.946;21.002;2023-04-22T00:12:51;100110.72;;;4.51;100.00
50867;BME280;36839;51.946;21.002;2023-04-22T00:15:21;100108.64;;;4.49;100.00
50867;BME280;36839;51.946;21.002;2023-04-22T00:17:48;100112.42;;;4.47;100.00
50867;BME280;36839;51.946;21.002;2023-04-22T00:20:16;100103.83;;;4.45;100.00
50867;BME280;36839;51.946;21.002;2023-04-22T00:22:43;100107.89;;;4.41;100.00
50867;BME280;36839;51.946;21.002;2023-04-22T00:25:11;100101.80;;;4.38;100.00
50867;BME280;36839;51.946;21.002;2023-04-22T00:27:39;100099.01;;;4.36;100.00
50867;BME280;36839;51.946;21.002;2023-04-22T00:30:11;100099.75;;;4.34;100.00
50867;BME280;36839;51.946;21.002;2023-04-22T00:32:38;100101.23;;;4.28;100.00
50867;BME280;36839;51.946;21.002;2023-04-22T00:35:06;100099.13;;;4.23;100.00
50867;BME280;36839;51.946;21.002;2023-04-22T00:37:33;100100.04;;;4.20;100.00
50867;BME280;36839;51.946;21.002;2023-04-22T00:40:02;100098.73;;;4.16;100.00
50867;BME280;36839;51.946;21.002;2023-04-22T00:42:29;100100.08;;;4.13;100.00
50867;BME280;36839;51.946;21.002;2023-04-22T00:44:59;100099.88;;;4.12;100.00
50867;BME280;36839;51.946;21.002;2023-04-22T00:47:29;100096.66;;;4.09;100.00
50867;BME280;36839;51.946;21.002;2023-04-22T00:49:59;100100.63;;;4.06;100.00
50867;BME280;36839;51.946;21.002;2023-04-22T00:52:26;100097.70;;;4.03;100.00
50867;BME280;36839;51.946;21.002;2023-04-22T00:54:53;100099.02;;;3.99;100.00
50867;BME280;36839;51.946;21.002;2023-04-22T00:57:22;100099.84;;;3.96;100.00
50867;BME280;36839;51.946;21.002;2023-04-22T00:59:50;100100.29;;;3.92;100.00
50867;BME280;36839;51.946;21.002;2023-04-22T01:02:17;100097.85;;;3.87;100.00
50867;BME280;36839;51.946;21.002;2023-04-22T01:04:45;100098.60;;;3.85;100.00
50867;BME280;36839;51.946;21.002;2023-04-22T01:07:12;100096.20;;;3.85;100.00
50867;BME280;36839;51.946;21.002;2023-04-22T01:09:40;100096.35;;;3.84;100.00
50867;BME280;36839;51.946;21.002;2023-04-22T01:12:07;100096.94;;;3.84;100.00
50867;BME280;36839;51.946;21.002;2023-04-22T01:14:34;100091.59;;;3.82;100.00
50867;BME280;36839;51.946;21.002;2023-04-22T01:17:01;100093.38;;;3.79;100.00
50867;BME280;36839;51.946;21.002;2023-04-22T01:19:28;100093.66;;;3.79;100.00
50867;BME280;36839;51.946;21.002;2023-04-22T01:21:56;100094.35;;;3.79;100.00
50867;BME280;36839;51.946;21.002;2023-04-22T01:24:23;100096.38;;;3.79;100.00
50867;BME280;36839;51.946;21.002;2023-04-22T01:26:52;100095.49;;;3.77;100.00
50867;BME280;36839;51.946;21.002;2023-04-22T01:29:19;100093.45;;;3.74;100.00
50867;BME280;36839;51.946;21.002;2023-04-22T01:31:46;100097.91;;;3.73;100.00
50867;BME280;36839;51.946;21.002;2023-04-22T01:34:13;100094.48;;;3.72;100.00
50867;BME280;36839;51.946;21.002;2023-04-22T01:36:42;100095.64;;;3.70;100.00
50867;BME280;36839;51.946;21.002;2023-04-22T01:39:09;100091.59;;;3.67;100.00
50867;BME280;36839;51.946;21.002;2023-04-22T01:41:36;100093.12;;;3.63;100.00
50867;BME280;36839;51.946;21.002;2023-04-22T01:44:03;100095.50;;;3.60;100.00
50867;BME280;36839;51.946;21.002;2023-04-22T01:46:32;100090.37;;;3.57;100.00
50867;BME280;36839;51.946;21.002;2023-04-22T01:48:59;100088.23;;;3.53;100.00
50867;BME280;36839;51.946;21.002;2023-04-22T01:51:26;100086.58;;;3.50;100.00
50867;BME280;36839;51.946;21.002;2023-04-22T01:53:53;100090.55;;;3.45;100.00
50867;BME280;36839;51.946;21.002;2023-04-22T01:56:20;100089.10;;;3.38;100.00
50867;BME280;36839;51.946;21.002;2023-04-22T01:58:47;100090.34;;;3.34;100.00
50867;BME280;36839;51.946;21.002;2023-04-22T02:01:14;100088.55;;;3.30;100.00
50867;BME280;36839;51.946;21.002;2023-04-22T02:03:41;100087.79;;;3.28;100.00
50867;BME280;36839;51.946;21.002;2023-04-22T02:06:08;100090.09;;;3.26;100.00
50867;BME280;36839;51.946;21.002;2023-04-22T02:08:35;100088.98;;;3.25;100.00
50867;BME280;36839;51.946;21.002;2023-04-22T02:11:02;100090.67;;;3.23;100.00
50867;BME280;36839;51.946;21.002;2023-04-22T02:13:37;100086.38;;;3.23;100.00
50867;BME280;36839;51.946;21.002;2023-04-22T02:16:05;100086.19;;;3.23;100.00
50867;BME280;36839;51.946;21.002;2023-04-22T02:18:33;100083.39;;;3.22;100.00
50867;BME280;36839;51.946;21.002;2023-04-22T02:20:59;100086.31;;;3.19;100.00
50867;BME280;36839;51.946;21.002;2023-04-22T02:23:28;100084.05;;;3.16;100.00
50867;BME280;36839;51.946;21.002;2023-04-22T02:25:55;100084.95;;;3.15;100.00
50867;BME280;36839;51.946;21.002;2023-04-22T02:28:22;100084.81;;;3.16;100.00
50867;BME280;36839;51.946;21.002;2023-04-22T02:30:51;100082.98;;;3.15;100.00
50867;BME280;36839;51.946;21.002;2023-04-22T02:33:18;100080.40;;;3.11;100.00
50867;BME280;36839;51.946;21.002;2023-04-22T02:35:45;100081.29;;;3.10;100.00
50867;BME280;36839;51.946;21.002;2023-04-22T02:38:12;100080.11;;;3.07;100.00
50867;BME280;36839;51.946;21.002;2023-04-22T02:40:39;100078.93;;;3.03;100.00
50867;BME280;36839;51.946;21.002;2023-04-22T02:43:06;100078.02;;;2.98;100.00
50867;BME280;36839;51.946;21.002;2023-04-22T02:45:33;100079.73;;;2.95;100.00
50867;BME280;36839;51.946;21.002;2023-04-22T02:48:01;100079.38;;;2.90;100.00
50867;BME280;36839;51.946;21.002;2023-04-22T02:50:28;100082.80;;;2.85;100.00
50867;BME280;36839;51.946;21.002;2023-04-22T02:52:55;100081.17;;;2.82;100.00
50867;BME280;36839;51.946;21.002;2023-04-22T02:55:21;100086.29;;;2.82;100.00
50867;BME280;36839;51.946;21.002;2023-04-22T02:57:50;100081.84;;;2.81;100.00
50867;BME280;36839;51.946;21.002;2023-04-22T03:00:17;100080.34;;;2.78;100.00
50867;BME280;36839;51.946;21.002;2023-04-22T03:02:44;100083.97;;;2.74;100.00
50867;BME280;36839;51.946;21.002;2023-04-22T03:05:11;100085.33;;;2.73;100.00
50867;BME280;36839;51.946;21.002;2023-04-22T03:07:38;100086.45;;;2.74;100.00
50867;BME280;36839;51.946;21.002;2023-04-22T03:10:06;100084.69;;;2.75;100.00
50867;BME280;36839;51.946;21.002;2023-04-22T03:12:33;100082.63;;;2.72;100.00
50867;BME280;36839;51.946;21.002;2023-04-22T03:15:00;100085.39;;;2.70;100.00
50867;BME280;36839;51.946;21.002;2023-04-22T03:17:27;100086.80;;;2.68;100.00
50867;BME280;36839;51.946;21.002;2023-04-22T03:19:54;100084.42;;;2.65;100.00
50867;BME280;36839;51.946;21.002;2023-04-22T03:22:22;100088.89;;;2.62;100.00
50867;BME280;36839;51.946;21.002;2023-04-22T03:24:50;100091.11;;;2.58;100.00
50867;BME280;36839;51.946;21.002;2023-04-22T03:27:17;100099.05;;;2.55;100.00
50867;BME280;36839;51.946;21.002;2023-04-22T03:29:44;100101.13;;;2.52;100.00
50867;BME280;36839;51.946;21.002;2023-04-22T03:32:11;100101.27;;;2.52;100.00
50867;BME280;36839;51.946;21.002;2023-04-22T03:34:38;100102.77;;;2.52;100.00
50867;BME280;36839;51.946;21.002;2023-04-22T03:37:04;100102.21;;;2.53;100.00
50867;BME280;36839;51.946;21.002;2023-04-22T03:39:33;100102.42;;;2.52;100.00
50867;BME280;36839;51.946;21.002;2023-04-22T03:42:00;100102.55;;;2.53;100.00
50867;BME280;36839;51.946;21.002;2023-04-22T03:44:29;100105.39;;;2.53;100.00
50867;BME280;36839;51.946;21.002;2023-04-22T03:46:56;100105.10;;;2.57;100.00
50867;BME280;36839;51.946;21.002;2023-04-22T03:49:23;100108.41;;;2.60;100.00
50867;BME280;36839;51.946;21.002;2023-04-22T03:51:50;100106.91;;;2.64;100.00
50867;BME280;36839;51.946;21.002;2023-04-22T03:54:17;100106.91;;;2.67;100.00
50867;BME280;36839;51.946;21.002;2023-04-22T03:56:45;100110.19;;;2.70;100.00
50867;BME280;36839;51.946;21.002;2023-04-22T03:59:12;100112.17;;;2.74;100.00
50867;BME280;36839;51.946;21.002;2023-04-22T04:01:39;100112.10;;;2.77;100.00
50867;BME280;36839;51.946;21.002;2023-04-22T04:04:06;100109.64;;;2.80;100.00
50867;BME280;36839;51.946;21.002;2023-04-22T04:06:33;100112.00;;;2.84;100.00
50867;BME280;36839;51.946;21.002;2023-04-22T04:09:00;100117.28;;;2.89;100.00
50867;BME280;36839;51.946;21.002;2023-04-22T04:11:27;100112.38;;;2.94;100.00
50867;BME280;36839;51.946;21.002;2023-04-22T04:13:54;100115.89;;;3.00;100.00
50867;BME280;36839;51.946;21.002;2023-04-22T04:16:21;100116.15;;;3.06;100.00
50867;BME280;36839;51.946;21.002;2023-04-22T04:18:51;100116.92;;;3.11;100.00
50867;BME280;36839;51.946;21.002;2023-04-22T04:21:18;100118.25;;;3.19;100.00
50867;BME280;36839;51.946;21.002;2023-04-22T04:23:46;100116.85;;;3.28;100.00
50867;BME280;36839;51.946;21.002;2023-04-22T04:26:14;100120.20;;;3.37;100.00
50867;BME280;36839;51.946;21.002;2023-04-22T04:28:41;100121.66;;;3.46;100.00
50867;BME280;36839;51.946;21.002;2023-04-22T04:31:08;100120.87;;;3.54;100.00
50867;BME280;36839;51.946;21.002;2023-04-22T04:33:36;100123.84;;;3.62;100.00
50867;BME280;36839;51.946;21.002;2023-04-22T04:36:04;100120.48;;;3.68;100.00
50867;BME280;36839;51.946;21.002;2023-04-22T04:38:31;100120.45;;;3.75;100.00
50867;BME280;36839;51.946;21.002;2023-04-22T04:40:58;100125.79;;;3.82;100.00
50867;BME280;36839;51.946;21.002;2023-04-22T04:43:25;100127.23;;;3.92;100.00
50867;BME280;36839;51.946;21.002;2023-04-22T04:45:52;100126.61;;;4.04;100.00
50867;BME280;36839;51.946;21.002;2023-04-22T04:48:21;100126.61;;;4.16;100.00
50867;BME280;36839;51.946;21.002;2023-04-22T04:50:50;100126.33;;;4.28;100.00
50867;BME280;36839;51.946;21.002;2023-04-22T04:53:20;100123.30;;;4.41;100.00
50867;BME280;36839;51.946;21.002;2023-04-22T04:55:48;100124.67;;;4.55;100.00
50867;BME280;36839;51.946;21.002;2023-04-22T04:58:16;100123.95;;;4.70;100.00
50867;BME280;36839;51.946;21.002;2023-04-22T05:00:43;100125.22;;;4.85;100.00
50867;BME280;36839;51.946;21.002;2023-04-22T05:03:10;100126.80;;;5.00;100.00
50867;BME280;36839;51.946;21.002;2023-04-22T05:05:37;100123.45;;;5.13;100.00
50867;BME280;36839;51.946;21.002;2023-04-22T05:08:04;100129.95;;;5.27;100.00
50867;BME280;36839;51.946;21.002;2023-04-22T05:10:31;100128.73;;;5.40;100.00
50867;BME280;36839;51.946;21.002;2023-04-22T05:12:58;100129.56;;;5.55;100.00
50867;BME280;36839;51.946;21.002;2023-04-22T05:15:25;100126.26;;;5.69;100.00
50867;BME280;36839;51.946;21.002;2023-04-22T05:17:53;100127.23;;;5.84;100.00
50867;BME280;36839;51.946;21.002;2023-04-22T05:20:20;100124.53;;;6.00;100.00
50867;BME280;36839;51.946;21.002;2023-04-22T05:22:47;100128.91;;;6.16;100.00
50867;BME280;36839;51.946;21.002;2023-04-22T05:25:15;100127.25;;;6.32;100.00
50867;BME280;36839;51.946;21.002;2023-04-22T05:27:42;100129.92;;;6.48;100.00
50867;BME280;36839;51.946;21.002;2023-04-22T05:30:09;100128.96;;;6.64;100.00
50867;BME280;36839;51.946;21.002;2023-04-22T05:32:37;100130.20;;;6.81;100.00
50867;BME280;36839;51.946;21.002;2023-04-22T05:35:05;100130.69;;;7.00;100.00
50867;BME280;36839;51.946;21.002;2023-04-22T05:37:32;100129.38;;;7.17;100.00
50867;BME280;36839;51.946;21.002;2023-04-22T05:39:59;100121.65;;;7.33;100.00
50867;BME280;36839;51.946;21.002;2023-04-22T05:42:26;100118.39;;;7.50;100.00
50867;BME280;36839;51.946;21.002;2023-04-22T05:44:53;100118.63;;;7.66;100.00
50867;BME280;36839;51.946;21.002;2023-04-22T05:47:20;100122.46;;;7.82;100.00
50867;BME280;36839;51.946;21.002;2023-04-22T05:49:48;100117.77;;;7.97;100.00
50867;BME280;36839;51.946;21.002;2023-04-22T05:52:15;100116.99;;;8.15;100.00
50867;BME280;36839;51.946;21.002;2023-04-22T05:54:44;100114.00;;;8.31;100.00
50867;BME280;36839;51.946;21.002;2023-04-22T05:57:11;100114.19;;;8.47;100.00
50867;BME280;36839;51.946;21.002;2023-04-22T05:59:38;100115.12;;;8.62;100.00
50867;BME280;36839;51.946;21.002;2023-04-22T06:02:05;100110.91;;;8.75;100.00
50867;BME280;36839;51.946;21.002;2023-04-22T06:04:32;100111.17;;;8.87;100.00
50867;BME280;36839;51.946;21.002;2023-04-22T06:06:59;100112.44;;;8.99;100.00
50867;BME280;36839;51.946;21.002;2023-04-22T06:09:26;100117.25;;;9.13;100.00
50867;BME280;36839;51.946;21.002;2023-04-22T06:11:53;100116.27;;;9.30;100.00
50867;BME280;36839;51.946;21.002;2023-04-22T06:14:20;100116.37;;;9.45;100.00
50867;BME280;36839;51.946;21.002;2023-04-22T06:16:47;100119.02;;;9.55;100.00
50867;BME280;36839;51.946;21.002;2023-04-22T06:19:16;100119.92;;;9.67;100.00
50867;BME280;36839;51.946;21.002;2023-04-22T06:21:43;100117.84;;;9.78;100.00
50867;BME280;36839;51.946;21.002;2023-04-22T06:24:10;100117.55;;;9.88;100.00
50867;BME280;36839;51.946;21.002;2023-04-22T06:26:37;100117.34;;;9.99;100.00
50867;BME280;36839;51.946;21.002;2023-04-22T06:29:04;100119.21;;;10.12;100.00
50867;BME280;36839;51.946;21.002;2023-04-22T06:31:31;100122.05;;;10.25;100.00
50867;BME280;36839;51.946;21.002;2023-04-22T06:33:58;100121.38;;;10.38;100.00
50867;BME280;36839;51.946;21.002;2023-04-22T06:36:26;100118.59;;;10.49;100.00
50867;BME280;36839;51.946;21.002;2023-04-22T06:38:53;100121.39;;;10.61;100.00
50867;BME280;36839;51.946;21.002;2023-04-22T06:41:20;100119.92;;;10.74;100.00
50867;BME280;36839;51.946;21.002;2023-04-22T06:43:48;100117.34;;;10.87;100.00
50867;BME280;36839;51.946;21.002;2023-04-22T06:46:16;100119.11;;;11.00;100.00
50867;BME280;36839;51.946;21.002;2023-04-22T06:48:43;100116.69;;;11.11;100.00
50867;BME280;36839;51.946;21.002;2023-04-22T06:51:10;100117.56;;;11.24;100.00
50867;BME280;36839;51.946;21.002;2023-04-22T06:53:37;100116.67;;;11.37;100.00
50867;BME280;36839;51.946;21.002;2023-04-22T06:56:05;100119.14;;;11.50;99.84
50867;BME280;36839;51.946;21.002;2023-04-22T06:58:32;100117.06;;;11.65;100.00
50867;BME280;36839;51.946;21.002;2023-04-22T07:00:59;100117.27;;;11.80;99.63
50867;BME280;36839;51.946;21.002;2023-04-22T07:03:26;100119.96;;;11.92;96.45
50867;BME280;36839;51.946;21.002;2023-04-22T07:05:53;100115.92;;;12.06;96.70
50867;BME280;36839;51.946;21.002;2023-04-22T07:08:20;100116.70;;;12.18;95.65
50867;BME280;36839;51.946;21.002;2023-04-22T07:10:50;100116.20;;;12.30;93.72
50867;BME280;36839;51.946;21.002;2023-04-22T07:13:17;100115.00;;;12.39;92.42
50867;BME280;36839;51.946;21.002;2023-04-22T07:15:44;100115.65;;;12.52;92.49
50867;BME280;36839;51.946;21.002;2023-04-22T07:18:11;100118.30;;;12.63;88.42
50867;BME280;36839;51.946;21.002;2023-04-22T07:20:38;100120.11;;;12.73;86.49
50867;BME280;36839;51.946;21.002;2023-04-22T07:23:06;100117.75;;;12.88;85.67
50867;BME280;36839;51.946;21.002;2023-04-22T07:25:33;100116.18;;;12.98;82.58
50867;BME280;36839;51.946;21.002;2023-04-22T07:28:00;100117.48;;;13.07;81.48
50867;BME280;36839;51.946;21.002;2023-04-22T07:30:28;100112.87;;;13.20;80.60
50867;BME280;36839;51.946;21.002;2023-04-22T07:32:55;100113.13;;;13.30;76.67
50867;BME280;36839;51.946;21.002;2023-04-22T07:35:22;100112.48;;;13.40;75.11
50867;BME280;36839;51.946;21.002;2023-04-22T07:37:50;100113.41;;;13.53;74.08
50867;BME280;36839;51.946;21.002;2023-04-22T07:40:17;100111.70;;;13.62;72.49
50867;BME280;36839;51.946;21.002;2023-04-22T07:42:44;100110.66;;;13.69;71.97
50867;BME280;36839;51.946;21.002;2023-04-22T07:45:11;100105.83;;;13.76;71.14
50867;BME280;36839;51.946;21.002;2023-04-22T07:47:41;100105.81;;;13.88;71.42
50867;BME280;36839;51.946;21.002;2023-04-22T07:50:08;100105.34;;;14.00;71.65
50867;BME280;36839;51.946;21.002;2023-04-22T07:52:35;100103.22;;;14.10;68.10
50867;BME280;36839;51.946;21.002;2023-04-22T07:55:02;100108.01;;;14.22;66.78
50867;BME280;36839;51.946;21.002;2023-04-22T07:57:29;100105.75;;;14.38;65.79
50867;BME280;36839;51.946;21.002;2023-04-22T07:59:58;100109.67;;;14.50;65.11
50867;BME280;36839;51.946;21.002;2023-04-22T08:02:27;100108.23;;;14.61;64.75
50867;BME280;36839;51.946;21.002;2023-04-22T08:04:55;100109.60;;;14.74;64.31
50867;BME280;36839;51.946;21.002;2023-04-22T08:07:22;100107.33;;;14.88;63.83
50867;BME280;36839;51.946;21.002;2023-04-22T08:09:49;100107.77;;;15.02;64.55
50867;BME280;36839;51.946;21.002;2023-04-22T08:12:16;100105.52;;;15.13;61.95
50867;BME280;36839;51.946;21.002;2023-04-22T08:14:43;100109.79;;;15.19;59.84
50867;BME280;36839;51.946;21.002;2023-04-22T08:17:10;100108.55;;;15.22;58.91
50867;BME280;36839;51.946;21.002;2023-04-22T08:19:39;100109.55;;;15.26;58.53
50867;BME280;36839;51.946;21.002;2023-04-22T08:22:06;100108.59;;;15.36;58.50
50867;BME280;36839;51.946;21.002;2023-04-22T08:24:33;100111.03;;;15.46;57.39
50867;BME280;36839;51.946;21.002;2023-04-22T08:27:00;100107.64;;;15.57;55.92
50867;BME280;36839;51.946;21.002;2023-04-22T08:29:28;100109.46;;;15.65;55.30
50867;BME280;36839;51.946;21.002;2023-04-22T08:31:54;100109.11;;;15.72;54.47
50867;BME280;36839;51.946;21.002;2023-04-22T08:34:22;100102.98;;;15.80;54.56
50867;BME280;36839;51.946;21.002;2023-04-22T08:36:50;100099.70;;;15.97;56.88
50867;BME280;36839;51.946;21.002;2023-04-22T08:39:17;100101.29;;;16.17;56.27
50867;BME280;36839;51.946;21.002;2023-04-22T08:41:45;100102.33;;;16.26;53.70
50867;BME280;36839;51.946;21.002;2023-04-22T08:44:14;100099.70;;;16.37;54.59
50867;BME280;36839;51.946;21.002;2023-04-22T08:46:45;100098.05;;;16.51;55.66
50867;BME280;36839;51.946;21.002;2023-04-22T08:49:14;100092.95;;;16.62;51.88
50867;BME280;36839;51.946;21.002;2023-04-22T08:51:42;100096.74;;;16.68;49.39
50867;BME280;36839;51.946;21.002;2023-04-22T08:54:10;100096.67;;;16.69;50.02
50867;BME280;36839;51.946;21.002;2023-04-22T08:56:43;100096.52;;;16.71;49.87
50867;BME280;36839;51.946;21.002;2023-04-22T08:59:12;100093.48;;;16.79;48.99
50867;BME280;36839;51.946;21.002;2023-04-22T09:01:40;100087.61;;;16.89;48.51
50867;BME280;36839;51.946;21.002;2023-04-22T09:04:10;100084.95;;;16.95;47.81
50867;BME280;36839;51.946;21.002;2023-04-22T09:06:37;100087.97;;;16.97;47.80
50867;BME280;36839;51.946;21.002;2023-04-22T09:09:04;100087.20;;;17.10;49.06
50867;BME280;36839;51.946;21.002;2023-04-22T09:11:32;100082.88;;;17.25;48.04
50867;BME280;36839;51.946;21.002;2023-04-22T09:13:59;100082.13;;;17.39;48.63
50867;BME280;36839;51.946;21.002;2023-04-22T09:16:31;100079.73;;;17.53;47.60
50867;BME280;36839;51.946;21.002;2023-04-22T09:18:59;100083.61;;;17.54;45.01
50867;BME280;36839;51.946;21.002;2023-04-22T09:21:27;100083.84;;;17.46;44.62
50867;BME280;36839;51.946;21.002;2023-04-22T09:23:59;100079.95;;;17.51;46.20
50867;BME280;36839;51.946;21.002;2023-04-22T09:26:29;100078.98;;;17.54;43.22
50867;BME280;36839;51.946;21.002;2023-04-22T09:28:57;100078.44;;;17.49;42.85
50867;BME280;36839;51.946;21.002;2023-04-22T09:31:27;100079.11;;;17.47;43.85
50867;BME280;36839;51.946;21.002;2023-04-22T09:33:57;100075.94;;;17.51;42.98
50867;BME280;36839;51.946;21.002;2023-04-22T09:36:27;100067.69;;;17.55;42.15
50867;BME280;36839;51.946;21.002;2023-04-22T09:38:58;100068.27;;;17.70;44.88
50867;BME280;36839;51.946;21.002;2023-04-22T09:41:30;100063.54;;;17.84;43.49
50867;BME280;36839;51.946;21.002;2023-04-22T09:43:59;100058.58;;;17.93;43.90
50867;BME280;36839;51.946;21.002;2023-04-22T09:46:30;100059.72;;;18.08;44.59
50867;BME280;36839;51.946;21.002;2023-04-22T09:48:58;100058.45;;;18.27;43.88
50867;BME280;36839;51.946;21.002;2023-04-22T09:51:26;100056.27;;;18.38;43.73
50867;BME280;36839;51.946;21.002;2023-04-22T09:54:04;100055.77;;;18.52;43.71
50867;BME280;36839;51.946;21.002;2023-04-22T09:56:51;100051.85;;;18.59;42.51
50867;BME280;36839;51.946;21.002;2023-04-22T09:59:26;100051.02;;;18.67;43.21
50867;BME280;36839;51.946;21.002;2023-04-22T10:01:57;100048.48;;;18.65;41.59
50867;BME280;36839;51.946;21.002;2023-04-22T10:04:24;100049.50;;;18.70;41.72
50867;BME280;36839;51.946;21.002;2023-04-22T10:06:52;100052.95;;;18.84;41.15
50867;BME280;36839;51.946;21.002;2023-04-22T10:09:24;100050.10;;;18.93;40.94
50867;BME280;36839;51.946;21.002;2023-04-22T10:11:53;100047.40;;;18.99;41.26
50867;BME280;36839;51.946;21.002;2023-04-22T10:14:23;100044.00;;;19.10;41.59
50867;BME280;36839;51.946;21.002;2023-04-22T10:16:57;100041.48;;;19.22;41.08
50867;BME280;36839;51.946;21.002;2023-04-22T10:19:26;100046.80;;;19.30;39.77
50867;BME280;36839;51.946;21.002;2023-04-22T10:21:56;100041.59;;;19.35;38.44
50867;BME280;36839;51.946;21.002;2023-04-22T10:24:26;100043.58;;;19.37;38.70
50867;BME280;36839;51.946;21.002;2023-04-22T10:26:57;100044.06;;;19.35;37.97
50867;BME280;36839;51.946;21.002;2023-04-22T10:29:26;100038.44;;;19.46;39.96
50867;BME280;36839;51.946;21.002;2023-04-22T10:34:45;100036.44;;;19.72;38.10
50867;BME280;36839;51.946;21.002;2023-04-22T10:37:17;100035.28;;;19.82;39.31
50867;BME280;36839;51.946;21.002;2023-04-22T10:40:13;100030.50;;;19.94;39.05
50867;BME280;36839;51.946;21.002;2023-04-22T10:42:50;100030.11;;;20.02;37.75
50867;BME280;36839;51.946;21.002;2023-04-22T10:45:23;100029.00;;;19.97;36.14
50867;BME280;36839;51.946;21.002;2023-04-22T10:47:51;100025.71;;;20.07;37.49
50867;BME280;36839;51.946;21.002;2023-04-22T10:50:25;100022.14;;;20.13;36.27
50867;BME280;36839;51.946;21.002;2023-04-22T10:52:58;100019.39;;;20.12;36.23
50867;BME280;36839;51.946;21.002;2023-04-22T10:55:50;100019.42;;;20.15;36.01
50867;BME280;36839;51.946;21.002;2023-04-22T10:58:23;100017.28;;;20.26;36.09
50867;BME280;36839;51.946;21.002;2023-04-22T11:00:53;100014.27;;;20.37;36.06
50867;BME280;36839;51.946;21.002;2023-04-22T11:03:29;100013.68;;;20.42;35.51
50867;BME280;36839;51.946;21.002;2023-04-22T11:06:17;100013.67;;;20.49;36.31
50867;BME280;36839;51.946;21.002;2023-04-22T11:08:46;100010.29;;;20.56;35.17
50867;BME280;36839;51.946;21.002;2023-04-22T11:11:16;100011.00;;;20.58;36.57
50867;BME280;36839;51.946;21.002;2023-04-22T11:13:46;100011.98;;;20.72;36.72
50867;BME280;36839;51.946;21.002;2023-04-22T11:16:16;100011.98;;;20.94;36.87
50867;BME280;36839;51.946;21.002;2023-04-22T11:18:45;100007.16;;;20.96;34.78
50867;BME280;36839;51.946;21.002;2023-04-22T11:21:13;100004.40;;;21.08;36.08
50867;BME280;36839;51.946;21.002;2023-04-22T11:23:49;100002.05;;;21.10;35.49
50867;BME280;36839;51.946;21.002;2023-04-22T11:26:17;99997.16;;;21.25;37.55
50867;BME280;36839;51.946;21.002;2023-04-22T11:28:45;99998.43;;;21.21;33.05
50867;BME280;36839;51.946;21.002;2023-04-22T11:31:13;99994.83;;;21.25;34.60
50867;BME280;36839;51.946;21.002;2023-04-22T11:33:40;99993.23;;;21.41;35.76
50867;BME280;36839;51.946;21.002;2023-04-22T11:36:10;99992.29;;;21.53;35.65
50867;BME280;36839;51.946;21.002;2023-04-22T11:38:37;99990.83;;;21.70;35.55
50867;BME280;36839;51.946;21.002;2023-04-22T11:41:04;99991.70;;;21.72;33.95
50867;BME280;36839;51.946;21.002;2023-04-22T11:43:31;99991.03;;;21.59;32.73
50867;BME280;36839;51.946;21.002;2023-04-22T11:45:59;99992.80;;;21.57;32.34
50867;BME280;36839;51.946;21.002;2023-04-22T11:48:25;99991.69;;;21.45;32.02
50867;BME280;36839;51.946;21.002;2023-04-22T11:51:14;99989.41;;;21.40;32.35
50867;BME280;36839;51.946;21.002;2023-04-22T11:53:49;99986.39;;;21.12;33.35
50867;BME280;36839;51.946;21.002;2023-04-22T11:56:16;99986.48;;;20.97;33.46
50867;BME280;36839;51.946;21.002;2023-04-22T11:58:43;99988.20;;;20.91;33.73
50867;BME280;36839;51.946;21.002;2023-04-22T12:01:11;99989.27;;;20.85;32.77
50867;BME280;36839;51.946;21.002;2023-04-22T12:03:39;99985.61;;;20.69;32.43
50867;BME280;36839;51.946;21.002;2023-04-22T12:06:06;99985.61;;;20.75;33.70
50867;BME280;36839;51.946;21.002;2023-04-22T12:08:38;99984.81;;;20.92;32.54
50867;BME280;36839;51.946;21.002;2023-04-22T12:11:09;99980.08;;;21.15;32.23
50867;BME280;36839;51.946;21.002;2023-04-22T12:16:08;99982.73;;;21.39;31.58
50867;BME280;36839;51.946;21.002;2023-04-22T12:18:37;99983.86;;;21.34;32.05
50867;BME280;36839;51.946;21.002;2023-04-22T12:21:12;99986.02;;;21.53;32.62
50867;BME280;36839;51.946;21.002;2023-04-22T12:23:44;99984.31;;;21.55;31.53
50867;BME280;36839;51.946;21.002;2023-04-22T12:26:12;99979.80;;;21.64;32.97
50867;BME280;36839;51.946;21.002;2023-04-22T12:28:40;99984.65;;;21.82;33.11
50867;BME280;36839;51.946;21.002;2023-04-22T12:31:08;99980.92;;;21.86;31.78
50867;BME280;36839;51.946;21.002;2023-04-22T12:33:37;99977.02;;;21.65;31.72
50867;BME280;36839;51.946;21.002;2023-04-22T12:36:05;99976.73;;;21.42;31.49
50867;BME280;36839;51.946;21.002;2023-04-22T12:38:33;99977.02;;;21.23;31.32
50867;BME280;36839;51.946;21.002;2023-04-22T12:41:01;99975.94;;;21.33;31.95
50867;BME280;36839;51.946;21.002;2023-04-22T12:43:28;99976.57;;;21.42;31.20
50867;BME280;36839;51.946;21.002;2023-04-22T12:45:55;99971.61;;;21.52;31.62
50867;BME280;36839;51.946;21.002;2023-04-22T12:48:22;99966.61;;;21.54;33.27
50867;BME280;36839;51.946;21.002;2023-04-22T12:50:49;99964.02;;;21.56;31.89